Восточный

СКИДКИ НА СМАРТФОНЫ!

Карта отелей и гостиниц, располагающихся рядом с аэропортом Восточный :

Восточный
Курск
Курская область 51° 45' 1.98" N, 36° 17' 44.7612" E
Код аэродрома ИКАО
UUOK
Код аэродрома RU
УУОК
Координаты
N51.75055° E036.29577°
Превышение над уровнем моря
206
Основная полоса
12/30
Курс магнитный
116/296
Длина основной ВПП
2500
Ширина основной ВПП
40
Покрытие основной ВПП
Твёрдое (бетон)
Освещение ВПП
Постоянное
Тип: 
Аэродром
Класс аэродрома: 
Международный
Принадлежность: 
МО
Статус: 
Действующий
Страна: 
Россия
Регион: 
Курская область
Город: 
Курск
Дополнительная информация: 
Оператор: ВКС России. Совместного использования (МОРФ и ФАВТ). ГВПП (1800x85м) в рабочем состоянии не поддерживается. Нкр.=(400)м. ВПП-06/24 построена во время ВОВ немцами, по назначению не используется. Военный индекс: XUOK / ЬУОК.
Погода: 

Авиационная погода в Курске

Погода METAR: 
UUOK 091530Z 34006MPS CAVOK 24/18 Q1019 R30/090060 NOSIG RMK QFE746/0994
Время наблюдения
2022-08-09T15:30:00Z
Температура C
24.0
Точка росы
18.0
Направление ветра
340
Скорость ветра (узлы)
12
Метео видимость
6.21
Облачность
CAVOK
Нижняя граница облачности (футы)
Явления погоды
Условия полета
VFR
Аэропорт подробнее: 

Скидки на навигаторы!

Найти трансфер

С помощью этой формы Вы можете найти трансфер из аэропорта Восточный в город, аэропорт или вокзал:

Погода в аэропортах:

Авиационная погода в Ярославле

Регион: 
Погода METAR: 
UUDL 091530Z 00000MPS 9999 -SHRA BKN036CB 17/15 Q1022 R23/010060 NOSIG RMK QFE758
Время наблюдения
2022-08-09T15:30:00Z
Температура C
17.0
Точка росы
15.0
Направление ветра
0
Скорость ветра (узлы)
0
Метео видимость
6.21
Облачность
BKN
Нижняя граница облачности (футы)
3600
Явления погоды
-SHRA
Условия полета
VFR
Аэропорт подробнее: 
BKN – значительная (рассеянная, разорванная) облачность;
-SHRA - слабый ливневой дождь;

Авиационная погода в Сургуте

Регион: 
Погода METAR: 
USRR 091430Z 01004MPS 2300 HZ BKN022 24/19 Q1016 R25/CLRD60 TEMPO 1200 HZ RMK OBST OBSC QFE756
Время наблюдения
2022-08-09T14:30:00Z
Температура C
24.0
Точка росы
19.0
Направление ветра
10
Скорость ветра (узлы)
8
Метео видимость
1.43
Облачность
BKN
Нижняя граница облачности (футы)
2200
Явления погоды
HZ
Условия полета
IFR
Аэропорт подробнее: 
BKN – значительная (рассеянная, разорванная) облачность;
HZ – мгла (видимость менее 10 км);

Авиационная погода в Берлевоге

Регион: 
Погода METAR: 
ENBV 091520Z AUTO 27011KT 9999 -RA SCT034 BKN044 OVC054 13/10 Q1016
Время наблюдения
2022-08-09T15:20:00Z
Температура C
13.0
Точка росы
10.0
Направление ветра
270
Скорость ветра (узлы)
11
Метео видимость
6.21
Облачность
SCT
BKN
OVC
Нижняя граница облачности (футы)
3400
4400
5400
Явления погоды
-RA
Условия полета
VFR
SCT – разбросанная отдельная облачность; BKN – значительная (рассеянная, разорванная) облачность; OVC – сплошная облачность;
-RA - слабый дождь;

Авиационная погода в Ханты-Мансийске

Регион: 
Погода METAR: 
USHH 091530Z 29001MPS 1200 1100SW R24/1200N FU BKN031 22/20 Q1017 R24/010060 TEMPO 0500 FU OVC002
Время наблюдения
2022-08-09T15:30:00Z
Температура C
22.0
Точка росы
20.0
Направление ветра
290
Скорость ветра (узлы)
2
Метео видимость
0.75
Облачность
BKN
Нижняя граница облачности (футы)
3100
Явления погоды
FU
Условия полета
LIFR
Аэропорт подробнее: 
BKN – значительная (рассеянная, разорванная) облачность;
FU – дым (видимость менее 10 км);